map of AKX home
AKX - Airport
Location
City:  Aktobe, Aqtöbe, Kazakhstan
Name:Aktobe Airport
ICAO:UATT
IATA:AKX

Details
Type:Airport (Aerodrome, Airfield)
Use:Public/Civil, International (customs port of entry)
Latitude:50°14'45"N (50.245833)
Longitude:57°12'24"E (57.206667)
Elevation:738 ft (225 m)
Variation:10.68°E (WMM2015 magnetic declination)
0.08° annual change
Runways:1
Longest:10509 × 151 ft (3203 × 46 m), paved

Time
Time Zone:UTC+5
Local Time:

Weather
METAR:UATT 190530Z 00000MPS 7000 BCFG SCT002 M19/M21 Q1016 R31/820245 TEMPO 0500 FZFG VV002 RMK QBB080 QFE742/0989
TAF:UATT 190500Z 1906/2006 01005MPS 3000 -SN BR SCT005 BKN010 TXM10/1912Z TNM21/1906Z
TEMPO 1906/1915 -FZDZ BKN004
TEMPO 1915/2003 BKN003

Related Locations
Nearby:
Farthest:IPC: 10690 mi / 17203 km
Easter Island (Isla de Pascua, Rapa Nui) [Mataveri Intl], VS, CL

Find:

   beyond  
but within

Other Information
Maps:
NOTAMs:
Links:
Sources:

  
  • flag of Kazakhstan
  

Sectional Chart

Flight Planning
at skyvector.com

Satellite Image

Google Maps Satellite view

 

Copyright © 2004-2019 Karl L. Swartz. All rights reserved.
The Great Circle Mapper name and logo are trademarks of the Great Circle Mapper.
All other trademarks mentioned herein belong to their respective owners.
Please see credits for attibutions and further copyright information.

  Follow gcmap on Facebook Follow gcmap on Twitter Follow gcmap on Google+ GCmap on LinkedIn

hCard Microformat

Geo Microformat